Time;durP1;ratioP1;P1;durP2;ratioP2;P2;SDS_P1;SDS_P2;PMS_P1;PMS_P2;Temp;Humidity;BMP_temperature;BMP_pressure;BME280_temperature;BME280_humidity;BME280_pressure;Samples;Min_cycle;Max_cycle;Signal;HPM_P1;HPM_P2
2023/06/17 00:01:51;;;;;;;7.03;6.43;;;;;;;;;;5114138;28;20032;-65
2023/06/17 00:04:16;;;;;;;7.03;6.43;;;;;;;;;;5113969;28;20027;-66
2023/06/17 00:06:42;;;;;;;7.70;7.00;;;;;;;;;;5086955;28;20467;-67
2023/06/17 00:09:08;;;;;;;6.93;6.15;;;;;;;;;;5093850;28;20036;-68
2023/06/17 00:11:34;;;;;;;7.22;6.63;;;;;;;;;;5075632;28;20051;-68
2023/06/17 00:14:00;;;;;;;6.68;6.07;;;;;;;;;;5094075;28;20452;-71
2023/06/17 00:16:26;;;;;;;7.18;6.47;;;;;;;;;;5093950;28;20050;-71
2023/06/17 00:18:51;;;;;;;7.30;6.60;;;;;;;;;;5093896;28;20028;-70
2023/06/17 00:21:17;;;;;;;7.97;6.18;;;;;;;;;;5075690;28;20097;-70
2023/06/17 00:23:42;;;;;;;6.75;6.15;;;;;;;;;;5093737;28;20074;-70
2023/06/17 00:26:07;;;;;;;6.40;5.85;;;;;;;;;;5076468;28;20036;-70
2023/06/17 00:28:32;;;;;;;6.70;6.20;;;;;;;;;;5097998;28;20444;-71
2023/06/17 00:30:58;;;;;;;7.10;6.47;;;;;;;;;;5097923;28;20028;-68
2023/06/17 00:33:23;;;;;;;6.90;6.20;;;;;;;;;;5097786;28;20486;-68
2023/06/17 00:35:49;;;;;;;7.00;6.30;;;;;;;;;;5079310;28;20076;-66
2023/06/17 00:38:14;;;;;;;6.38;5.88;;;;;;;;;;5079820;28;20138;-66
2023/06/17 00:40:39;;;;;;;6.72;6.13;;;;;;;;;;5079564;28;20031;-61
2023/06/17 00:43:05;;;;;;;6.70;6.00;;;;;;;;;;5079412;28;20383;-62
2023/06/17 00:45:30;;;;;;;6.88;6.28;;;;;;;;;;5062963;28;20040;-61
2023/06/17 00:47:56;;;;;;;6.32;5.72;;;;;;;;;;5097452;28;20044;-64
2023/06/17 00:50:22;;;;;;;6.05;5.55;;;;;;;;;;5079220;28;20115;-63
2023/06/17 00:52:51;;;;;;;5.97;5.47;;;;;;;;;;5097391;28;20064;-64
2023/06/17 00:55:16;;;;;;;6.13;5.53;;;;;;;;;;5097338;28;20430;-66
2023/06/17 00:57:42;;;;;;;5.70;5.30;;;;;;;;;;5097334;28;20024;-66
2023/06/17 01:00:10;;;;;;;6.72;6.13;;;;;;;;;;5096930;28;20040;-66
2023/06/17 01:02:39;;;;;;;6.60;6.10;;;;;;;;;;5097263;28;20031;-66
2023/06/17 01:05:10;;;;;;;6.72;6.15;;;;;;;;;;5097145;28;20086;-66
2023/06/17 01:07:37;;;;;;;6.63;6.10;;;;;;;;;;5097273;28;20032;-64
2023/06/17 01:10:18;;;;;;;6.35;5.85;;;;;;;;;;5078758;28;20163;-63
2023/06/17 01:12:44;;;;;;;6.90;6.30;;;;;;;;;;5078789;28;20388;-63
2023/06/17 01:15:10;;;;;;;7.03;6.32;;;;;;;;;;5096701;28;20040;-62
2023/06/17 01:17:36;;;;;;;7.80;6.65;;;;;;;;;;5078662;28;20036;-62
2023/06/17 01:20:03;;;;;;;6.57;5.75;;;;;;;;;;5078414;28;20036;-64
2023/06/17 01:22:29;;;;;;;6.78;6.07;;;;;;;;;;5078238;28;20032;-67
2023/06/17 01:24:56;;;;;;;6.68;6.18;;;;;;;;;;5096631;28;20050;-66
2023/06/17 01:27:23;;;;;;;7.45;6.85;;;;;;;;;;5078450;28;20036;-67
2023/06/17 01:29:48;;;;;;;7.90;7.15;;;;;;;;;;5078767;28;20028;-67
2023/06/17 01:32:14;;;;;;;6.60;6.05;;;;;;;;;;5061407;28;20384;-67
2023/06/17 01:34:51;;;;;;;6.40;5.65;;;;;;;;;;5078542;28;20032;-67
2023/06/17 01:37:20;;;;;;;5.72;5.32;;;;;;;;;;5096477;28;20040;-66
2023/06/17 01:39:47;;;;;;;6.38;5.65;;;;;;;;;;5095480;28;20024;-65
2023/06/17 01:42:31;;;;;;;6.30;5.90;;;;;;;;;;5077900;28;20024;-65
2023/06/17 01:44:58;;;;;;;6.18;5.68;;;;;;;;;;5078107;28;20051;-65
2023/06/17 01:47:24;;;;;;;6.13;5.60;;;;;;;;;;5096576;28;20036;-66
2023/06/17 01:49:49;;;;;;;6.18;5.65;;;;;;;;;;5096524;28;20050;-66
2023/06/17 01:52:15;;;;;;;6.25;5.75;;;;;;;;;;5096227;28;20093;-66
2023/06/17 01:54:40;;;;;;;6.20;5.72;;;;;;;;;;5077997;28;20040;-66
2023/06/17 01:57:07;;;;;;;6.05;5.55;;;;;;;;;;5077961;28;20040;-66
2023/06/17 01:59:32;;;;;;;6.05;5.60;;;;;;;;;;5077636;28;20105;-66
2023/06/17 02:01:58;;;;;;;7.30;5.97;;;;;;;;;;5078084;28;20028;-66
2023/06/17 02:04:23;;;;;;;7.20;6.50;;;;;;;;;;5077811;28;20032;-68
2023/06/17 02:06:49;;;;;;;6.75;6.15;;;;;;;;;;5077902;28;20028;-68
2023/06/17 02:09:14;;;;;;;6.38;5.88;;;;;;;;;;5078020;28;20036;-69
2023/06/17 02:11:40;;;;;;;9.15;7.13;;;;;;;;;;5077850;28;20435;-68
2023/06/17 02:14:06;;;;;;;7.60;6.85;;;;;;;;;;5077848;28;20035;-68
2023/06/17 02:16:32;;;;;;;7.72;7.03;;;;;;;;;;5060949;28;20070;-67
2023/06/17 02:18:57;;;;;;;7.63;6.93;;;;;;;;;;5077490;28;20032;-64
2023/06/17 02:21:23;;;;;;;6.78;6.20;;;;;;;;;;5077140;28;20462;-64
2023/06/17 02:23:49;;;;;;;6.88;6.10;;;;;;;;;;5095286;28;20059;-64
2023/06/17 02:26:18;;;;;;;7.20;6.53;;;;;;;;;;5077788;28;20040;-64
2023/06/17 02:28:43;;;;;;;6.22;5.75;;;;;;;;;;5095207;28;20062;-64
2023/06/17 02:31:09;;;;;;;8.15;7.47;;;;;;;;;;5076844;28;20032;-66
2023/06/17 02:33:35;;;;;;;8.27;7.57;;;;;;;;;;5076621;28;20032;-67
2023/06/17 02:36:00;;;;;;;8.02;7.28;;;;;;;;;;5077218;28;20048;-67
2023/06/17 02:38:26;;;;;;;8.32;7.63;;;;;;;;;;5076969;28;20102;-66
2023/06/17 02:40:52;;;;;;;6.97;6.47;;;;;;;;;;5076703;28;20028;-64
2023/06/17 02:43:18;;;;;;;7.32;6.43;;;;;;;;;;5077166;28;20051;-63
2023/06/17 02:45:43;;;;;;;6.88;6.22;;;;;;;;;;5095362;28;20065;-63
2023/06/17 02:48:08;;;;;;;7.15;6.50;;;;;;;;;;5094972;28;20034;-64
2023/06/17 02:50:34;;;;;;;7.38;6.82;;;;;;;;;;5076116;28;20064;-65
2023/06/17 02:53:00;;;;;;;7.70;7.10;;;;;;;;;;5076606;28;20031;-64
2023/06/17 02:55:29;;;;;;;7.78;6.18;;;;;;;;;;5076996;28;20064;-64
2023/06/17 02:57:58;;;;;;;6.95;6.32;;;;;;;;;;5076962;28;20020;-65
2023/06/17 03:00:28;;;;;;;7.03;6.35;;;;;;;;;;5076660;28;20043;-64
2023/06/17 03:02:53;;;;;;;6.97;6.43;;;;;;;;;;5076726;28;20032;-62
2023/06/17 03:05:18;;;;;;;7.03;6.40;;;;;;;;;;5076864;28;20081;-62
2023/06/17 03:07:45;;;;;;;7.28;6.63;;;;;;;;;;5094964;28;20036;-63
2023/06/17 03:10:11;;;;;;;6.80;6.28;;;;;;;;;;5076739;28;20077;-63
2023/06/17 03:12:43;;;;;;;6.68;6.00;;;;;;;;;;5076618;28;20016;-65
2023/06/17 03:15:08;;;;;;;6.53;6.03;;;;;;;;;;5076527;28;20035;-68
2023/06/17 03:17:35;;;;;;;7.35;6.72;;;;;;;;;;5076296;28;20085;-67
2023/06/17 03:20:01;;;;;;;7.07;6.43;;;;;;;;;;5094645;28;20488;-67
2023/06/17 03:22:27;;;;;;;7.90;7.15;;;;;;;;;;5076576;28;20035;-67
2023/06/17 03:24:52;;;;;;;7.38;6.78;;;;;;;;;;5076561;28;20087;-67
2023/06/17 03:27:20;;;;;;;6.82;6.22;;;;;;;;;;5075904;28;20040;-67
2023/06/17 03:29:48;;;;;;;7.57;6.93;;;;;;;;;;5059940;28;20044;-67
2023/06/17 03:32:14;;;;;;;7.75;7.05;;;;;;;;;;5075665;28;20475;-65
2023/06/17 03:37:24;;;;;;;7.15;6.45;;;;;;;;;;5071666;28;20048;-67
2023/06/17 03:39:50;;;;;;;7.10;6.43;;;;;;;;;;5072924;28;20032;-67
2023/06/17 03:42:16;;;;;;;6.82;6.13;;;;;;;;;;5072413;28;20025;-67
2023/06/17 03:44:42;;;;;;;7.60;6.90;;;;;;;;;;5055806;28;20040;-69
2023/06/17 03:47:14;;;;;;;7.18;6.57;;;;;;;;;;5056007;28;20024;-68
2023/06/17 03:49:40;;;;;;;7.20;6.38;;;;;;;;;;5056363;28;20375;-62
2023/06/17 03:52:07;;;;;;;7.00;6.18;;;;;;;;;;5072757;28;20036;-62
2023/06/17 03:54:32;;;;;;;6.20;5.55;;;;;;;;;;5056330;28;20028;-62
2023/06/17 03:56:58;;;;;;;6.35;5.78;;;;;;;;;;5072807;28;20017;-62
2023/06/17 03:59:23;;;;;;;7.18;6.53;;;;;;;;;;5073827;28;20052;-62
2023/06/17 04:01:48;;;;;;;11.98;7.68;;;;;;;;;;5072459;28;20040;-61
2023/06/17 04:04:14;;;;;;;11.98;7.60;;;;;;;;;;5072574;28;20024;-62
2023/06/17 04:06:40;;;;;;;10.38;7.63;;;;;;;;;;5073835;28;20358;-66
2023/06/17 04:09:05;;;;;;;6.38;5.80;;;;;;;;;;5055414;28;20052;-67
2023/06/17 04:11:33;;;;;;;6.10;5.57;;;;;;;;;;5055779;28;20028;-63
2023/06/17 04:13:58;;;;;;;5.70;5.20;;;;;;;;;;5055586;28;20123;-66
2023/06/17 04:16:24;;;;;;;5.53;5.05;;;;;;;;;;5072721;28;20032;-68
2023/06/17 04:18:49;;;;;;;5.97;5.38;;;;;;;;;;5055907;28;20377;-63
2023/06/17 04:21:15;;;;;;;5.22;4.90;;;;;;;;;;5039517;28;20495;-64
2023/06/17 04:23:40;;;;;;;5.90;5.35;;;;;;;;;;5055259;28;20033;-64
2023/06/17 04:26:06;;;;;;;5.18;4.78;;;;;;;;;;5055236;28;20400;-67
2023/06/17 04:28:32;;;;;;;4.70;4.40;;;;;;;;;;5055475;28;20036;-66
2023/06/17 04:31:00;;;;;;;4.65;4.35;;;;;;;;;;5055850;28;20028;-63
2023/06/17 04:33:26;;;;;;;5.22;4.85;;;;;;;;;;5055488;28;20514;-64
2023/06/17 04:35:53;;;;;;;4.63;4.32;;;;;;;;;;5071978;28;20397;-63
2023/06/17 04:38:20;;;;;;;4.70;4.32;;;;;;;;;;5038597;28;20491;-63
2023/06/17 04:40:46;;;;;;;5.05;4.65;;;;;;;;;;5039042;28;20044;-62
2023/06/17 04:43:12;;;;;;;5.72;5.22;;;;;;;;;;5071772;28;20039;-62
2023/06/17 04:45:39;;;;;;;5.70;5.30;;;;;;;;;;5073381;28;20032;-65
2023/06/17 04:48:05;;;;;;;5.72;5.28;;;;;;;;;;5055382;28;20127;-64
2023/06/17 04:50:32;;;;;;;5.18;4.78;;;;;;;;;;5038704;28;20036;-64
2023/06/17 04:53:03;;;;;;;5.57;5.03;;;;;;;;;;5055041;28;20083;-64
2023/06/17 04:55:30;;;;;;;5.68;5.18;;;;;;;;;;5038024;28;20503;-63
2023/06/17 04:57:56;;;;;;;5.35;4.82;;;;;;;;;;5071677;28;20119;-63
2023/06/17 05:00:34;;;;;;;4.53;4.22;;;;;;;;;;5054980;28;20484;-63
2023/06/17 05:03:00;;;;;;;5.55;5.05;;;;;;;;;;5071583;28;20037;-64
2023/06/17 05:05:25;;;;;;;5.32;4.88;;;;;;;;;;5071518;28;20075;-63
2023/06/17 05:07:51;;;;;;;5.68;5.18;;;;;;;;;;5054798;28;20041;-64
2023/06/17 05:10:16;;;;;;;6.20;5.60;;;;;;;;;;5073237;28;20044;-65
2023/06/17 05:12:42;;;;;;;5.80;5.40;;;;;;;;;;5071494;28;20123;-65
2023/06/17 05:15:08;;;;;;;5.47;5.05;;;;;;;;;;5058162;28;20041;-66
2023/06/17 05:17:34;;;;;;;6.55;5.57;;;;;;;;;;5075173;28;20122;-65
2023/06/17 05:19:59;;;;;;;5.78;5.25;;;;;;;;;;5076415;28;20114;-65
2023/06/17 05:22:24;;;;;;;5.50;5.10;;;;;;;;;;5075511;28;20040;-65
2023/06/17 05:24:50;;;;;;;5.65;5.15;;;;;;;;;;5076414;28;20183;-63
2023/06/17 05:27:16;;;;;;;5.53;5.13;;;;;;;;;;5076504;28;20432;-64
2023/06/17 05:29:42;;;;;;;7.75;5.20;;;;;;;;;;5058197;28;20029;-67
2023/06/17 05:32:08;;;;;;;5.53;5.15;;;;;;;;;;5041886;28;20161;-69
2023/06/17 05:34:34;;;;;;;5.75;5.25;;;;;;;;;;5057982;28;20500;-68
2023/06/17 05:36:59;;;;;;;5.95;5.32;;;;;;;;;;5075953;28;20364;-69
2023/06/17 05:39:25;;;;;;;5.43;4.97;;;;;;;;;;5075073;28;20036;-69
2023/06/17 05:41:50;;;;;;;5.75;5.15;;;;;;;;;;5058354;28;20056;-69
2023/06/17 05:44:17;;;;;;;6.78;6.05;;;;;;;;;;5058146;28;20040;-69
2023/06/17 05:46:44;;;;;;;5.22;4.78;;;;;;;;;;5075241;28;20439;-69
2023/06/17 05:49:10;;;;;;;5.07;4.68;;;;;;;;;;5074829;28;20028;-69
2023/06/17 05:51:36;;;;;;;5.82;5.32;;;;;;;;;;5058037;28;20077;-69
2023/06/17 05:54:02;;;;;;;6.00;5.30;;;;;;;;;;5074619;28;20033;-65
2023/06/17 05:56:27;;;;;;;6.03;5.53;;;;;;;;;;5074160;28;20054;-65
2023/06/17 05:58:53;;;;;;;6.35;5.78;;;;;;;;;;5074402;28;20047;-61
2023/06/17 06:01:27;;;;;;;7.63;6.93;;;;;;;;;;5074897;28;20040;-63
2023/06/17 06:03:53;;;;;;;6.15;5.70;;;;;;;;;;5074547;28;20051;-64
2023/06/17 06:06:18;;;;;;;6.68;6.05;;;;;;;;;;5041341;28;20028;-63
2023/06/17 06:08:43;;;;;;;5.47;4.97;;;;;;;;;;5040915;28;20460;-66
2023/06/17 06:11:09;;;;;;;6.15;5.70;;;;;;;;;;5074476;28;20111;-66
2023/06/17 06:13:35;;;;;;;5.45;5.07;;;;;;;;;;5074925;28;20074;-66
2023/06/17 06:16:00;;;;;;;6.45;5.55;;;;;;;;;;5057538;28;20044;-66
2023/06/17 06:18:27;;;;;;;6.90;6.32;;;;;;;;;;5057359;28;20033;-65
2023/06/17 06:20:53;;;;;;;6.18;5.50;;;;;;;;;;5062166;28;20119;-64
2023/06/17 06:23:18;;;;;;;6.10;5.60;;;;;;;;;;5072673;28;20127;-64
2023/06/17 06:25:44;;;;;;;7.60;6.03;;;;;;;;;;5074206;28;20036;-64
2023/06/17 06:28:09;;;;;;;6.55;5.90;;;;;;;;;;5072579;28;20028;-65
2023/06/17 06:30:35;;;;;;;7.32;6.63;;;;;;;;;;5072662;28;20025;-62
2023/06/17 06:33:00;;;;;;;7.13;6.43;;;;;;;;;;5073153;28;20028;-61
2023/06/17 06:35:26;;;;;;;6.47;5.82;;;;;;;;;;5073017;28;20071;-63
2023/06/17 06:37:52;;;;;;;6.57;6.03;;;;;;;;;;5071623;28;20094;-63
2023/06/17 06:40:18;;;;;;;6.57;5.97;;;;;;;;;;5071720;28;20036;-63
2023/06/17 06:42:44;;;;;;;6.88;6.10;;;;;;;;;;5072226;28;20044;-63
2023/06/17 06:45:36;;;;;;;6.75;6.07;;;;;;;;;;5072178;28;20388;-63
2023/06/17 06:48:02;;;;;;;6.00;5.50;;;;;;;;;;5071972;28;20040;-65
2023/06/17 06:50:27;;;;;;;7.65;6.88;;;;;;;;;;5072461;28;20476;-65
2023/06/17 06:52:55;;;;;;;7.13;6.43;;;;;;;;;;5073249;28;20032;-65
2023/06/17 06:55:23;;;;;;;7.40;6.65;;;;;;;;;;5056464;28;20495;-65
2023/06/17 06:57:52;;;;;;;9.02;7.10;;;;;;;;;;5073035;28;20139;-65
2023/06/17 07:00:18;;;;;;;8.02;7.22;;;;;;;;;;5072964;28;20068;-65
2023/06/17 07:02:47;;;;;;;7.70;6.90;;;;;;;;;;5072837;28;20070;-65
2023/06/17 07:05:12;;;;;;;6.75;6.13;;;;;;;;;;5072790;28;20073;-65
2023/06/17 07:07:44;;;;;;;;;;;;;;;;;;5072993;28;20033;-65
2023/06/17 07:10:09;;;;;;;6.78;5.80;;;;;;;;;;5072668;28;19909;-65
2023/06/17 07:12:36;;;;;;;7.18;6.32;;;;;;;;;;5072369;28;20032;-66
2023/06/17 07:15:02;;;;;;;7.38;6.63;;;;;;;;;;5071805;28;20029;-66
2023/06/17 07:17:29;;;;;;;8.80;7.13;;;;;;;;;;5073350;28;20490;-66
2023/06/17 07:19:55;;;;;;;11.07;7.40;;;;;;;;;;5072320;28;20032;-67
2023/06/17 07:22:21;;;;;;;6.90;6.30;;;;;;;;;;5065915;28;20539;-67
2023/06/17 07:24:46;;;;;;;8.43;6.82;;;;;;;;;;5071835;28;20044;-66
2023/06/17 07:27:12;;;;;;;6.78;6.18;;;;;;;;;;5072381;28;20037;-66
2023/06/17 07:29:38;;;;;;;7.25;6.55;;;;;;;;;;5069752;28;20048;-66
2023/06/17 07:32:03;;;;;;;7.00;6.40;;;;;;;;;;5071220;28;20094;-66
2023/06/17 07:34:30;;;;;;;7.40;6.57;;;;;;;;;;5071883;28;20504;-66
2023/06/17 07:36:55;;;;;;;7.10;6.40;;;;;;;;;;5071268;28;20132;-66
2023/06/17 07:39:21;;;;;;;7.53;6.82;;;;;;;;;;5072763;28;20060;-66
2023/06/17 07:41:46;;;;;;;7.82;7.10;;;;;;;;;;5072303;28;20498;-67
2023/06/17 07:44:12;;;;;;;7.10;6.05;;;;;;;;;;5071217;28;20043;-68
2023/06/17 07:46:37;;;;;;;7.65;6.95;;;;;;;;;;5054977;28;20506;-67
2023/06/17 07:49:03;;;;;;;6.97;4.72;;;;;;;;;;5071943;28;20044;-67
2023/06/17 07:51:28;;;;;;;5.10;4.15;;;;;;;;;;5072746;28;20495;-67
2023/06/17 07:53:53;;;;;;;7.38;6.68;;;;;;;;;;5072268;28;20036;-68
2023/06/17 07:56:19;;;;;;;6.78;6.18;;;;;;;;;;5072336;28;20032;-67
2023/06/17 07:58:45;;;;;;;8.05;6.75;;;;;;;;;;5072860;28;20045;-67
2023/06/17 08:01:11;;;;;;;6.70;6.13;;;;;;;;;;5072848;28;20584;-67
2023/06/17 08:03:37;;;;;;;4.97;4.57;;;;;;;;;;5072904;28;20111;-67
2023/06/17 08:06:03;;;;;;;8.82;7.93;;;;;;;;;;5073047;28;20052;-67
2023/06/17 08:08:28;;;;;;;9.70;7.57;;;;;;;;;;5073056;28;20108;-67
2023/06/17 08:10:54;;;;;;;6.50;5.82;;;;;;;;;;5072833;28;20455;-67
2023/06/17 08:13:19;;;;;;;6.70;5.22;;;;;;;;;;5072898;28;20033;-68
2023/06/17 08:15:45;;;;;;;7.13;6.43;;;;;;;;;;5073541;28;20039;-68
2023/06/17 08:18:10;;;;;;;7.95;6.70;;;;;;;;;;5071335;28;20048;-68
2023/06/17 08:20:36;;;;;;;7.05;6.35;;;;;;;;;;5072821;28;20036;-68
2023/06/17 08:23:03;;;;;;;7.57;6.88;;;;;;;;;;5071524;28;20461;-68
2023/06/17 08:25:28;;;;;;;7.70;7.00;;;;;;;;;;5072622;28;20123;-67
2023/06/17 08:27:54;;;;;;;5.22;4.13;;;;;;;;;;5072953;28;20120;-67
2023/06/17 08:30:19;;;;;;;2.58;2.38;;;;;;;;;;5072485;28;20029;-68
2023/06/17 08:32:45;;;;;;;6.47;5.88;;;;;;;;;;5072156;28;20048;-67
2023/06/17 08:35:10;;;;;;;7.35;6.65;;;;;;;;;;5073890;28;20032;-67
2023/06/17 08:37:36;;;;;;;6.25;5.70;;;;;;;;;;5074468;28;20657;-67
2023/06/17 08:40:05;;;;;;;6.80;6.10;;;;;;;;;;5074870;28;20036;-67
2023/06/17 08:42:31;;;;;;;7.05;6.18;;;;;;;;;;5073633;28;20122;-67
2023/06/17 08:44:58;;;;;;;6.55;5.60;;;;;;;;;;5093030;28;20388;-66
2023/06/17 08:47:24;;;;;;;7.63;6.32;;;;;;;;;;5075621;28;20547;-67
2023/06/17 08:49:51;;;;;;;5.43;4.93;;;;;;;;;;5078214;28;20032;-67
2023/06/17 08:52:17;;;;;;;6.25;5.72;;;;;;;;;;5097286;28;20460;-67
2023/06/17 08:54:42;;;;;;;6.50;5.28;;;;;;;;;;5096977;28;20034;-67
2023/06/17 08:57:12;;;;;;;6.28;5.68;;;;;;;;;;5078893;28;20345;-67
2023/06/17 08:59:38;;;;;;;6.80;6.07;;;;;;;;;;5078303;28;20438;-67
2023/06/17 09:02:03;;;;;;;5.88;5.28;;;;;;;;;;5078035;28;20051;-67
2023/06/17 09:04:29;;;;;;;7.93;6.25;;;;;;;;;;5078266;28;20071;-67
2023/06/17 09:06:55;;;;;;;5.25;4.85;;;;;;;;;;5096315;28;20382;-67
2023/06/17 09:09:21;;;;;;;3.42;3.13;;;;;;;;;;5078241;28;20040;-67
2023/06/17 09:11:50;;;;;;;4.90;4.50;;;;;;;;;;5096151;28;20042;-67
2023/06/17 09:14:18;;;;;;;6.05;5.55;;;;;;;;;;5096244;28;20028;-67
2023/06/17 09:16:43;;;;;;;6.10;5.60;;;;;;;;;;5061170;28;20127;-67
2023/06/17 09:19:09;;;;;;;7.00;6.30;;;;;;;;;;5095812;28;20127;-67
2023/06/17 09:21:35;;;;;;;4.50;3.67;;;;;;;;;;5096009;28;20036;-67
2023/06/17 09:24:02;;;;;;;6.22;4.70;;;;;;;;;;5078263;28;20044;-67
2023/06/17 09:26:32;;;;;;;4.90;4.32;;;;;;;;;;5096132;28;20074;-67
2023/06/17 09:29:01;;;;;;;5.53;5.07;;;;;;;;;;5095647;28;20032;-67
2023/06/17 09:31:28;;;;;;;6.75;4.30;;;;;;;;;;5095734;28;20050;-68
2023/06/17 09:33:54;;;;;;;2.65;2.45;;;;;;;;;;5095168;28;20023;-67
2023/06/17 09:36:21;;;;;;;6.10;5.55;;;;;;;;;;5074261;28;20044;-67
2023/06/17 09:38:47;;;;;;;5.90;5.35;;;;;;;;;;5074889;28;20044;-67
2023/06/17 09:41:14;;;;;;;5.63;4.15;;;;;;;;;;5074405;28;20573;-67
2023/06/17 09:43:41;;;;;;;9.02;5.40;;;;;;;;;;5073567;28;20068;-67
2023/06/17 09:46:09;;;;;;;5.13;4.72;;;;;;;;;;5075471;28;20024;-67
2023/06/17 09:48:37;;;;;;;4.78;4.45;;;;;;;;;;5075344;28;20064;-68
2023/06/17 09:51:05;;;;;;;5.15;4.75;;;;;;;;;;5075126;28;20035;-67
2023/06/17 09:53:31;;;;;;;3.88;3.40;;;;;;;;;;5074746;28;20607;-67
2023/06/17 09:55:58;;;;;;;4.30;4.00;;;;;;;;;;5074945;28;20040;-65
2023/06/17 09:58:29;;;;;;;3.85;3.55;;;;;;;;;;5073790;28;20040;-65
2023/06/17 10:00:56;;;;;;;;;;;;;;;;;;5072960;28;20076;-67
2023/06/17 10:03:22;;;;;;;5.03;4.40;;;;;;;;;;5065514;28;19958;-67
2023/06/17 10:05:54;;;;;;;3.65;3.35;;;;;;;;;;5054306;28;20045;-67
2023/06/17 10:08:20;;;;;;;4.60;4.20;;;;;;;;;;5054782;28;20530;-67
2023/06/17 10:10:47;;;;;;;3.50;3.20;;;;;;;;;;5054225;28;20120;-68
2023/06/17 10:13:12;;;;;;;3.10;2.90;;;;;;;;;;5054906;28;20091;-68
2023/06/17 10:15:38;;;;;;;4.45;4.07;;;;;;;;;;5055079;28;20041;-68
2023/06/17 10:18:05;;;;;;;6.05;4.03;;;;;;;;;;5054372;28;20048;-68
2023/06/17 10:20:32;;;;;;;2.42;2.22;;;;;;;;;;5054529;28;20025;-68
2023/06/17 10:22:58;;;;;;;4.72;4.25;;;;;;;;;;5053055;28;20045;-68
2023/06/17 10:25:25;;;;;;;4.10;3.85;;;;;;;;;;5053106;28;20405;-68
2023/06/17 10:27:51;;;;;;;4.07;3.78;;;;;;;;;;5053301;28;20393;-68
2023/06/17 10:30:26;;;;;;;13.63;4.35;;;;;;;;;;5053477;28;20037;-68
2023/06/17 10:32:52;;;;;;;4.03;3.47;;;;;;;;;;5054684;28;20033;-68
2023/06/17 10:35:19;;;;;;;4.20;3.75;;;;;;;;;;5057298;28;20606;-68
2023/06/17 10:37:46;;;;;;;4.10;3.80;;;;;;;;;;5076141;28;20410;-68
2023/06/17 10:40:18;;;;;;;3.70;3.40;;;;;;;;;;5094621;28;20048;-68
2023/06/17 10:42:58;;;;;;;5.90;3.80;;;;;;;;;;5076107;28;20059;-68
2023/06/17 10:45:23;;;;;;;3.72;3.42;;;;;;;;;;5094490;28;20502;-68
2023/06/17 10:47:49;;;;;;;4.35;2.58;;;;;;;;;;5094309;28;20028;-68
2023/06/17 10:50:14;;;;;;;4.65;3.40;;;;;;;;;;5094161;28;20031;-68
2023/06/17 10:52:40;;;;;;;4.40;4.07;;;;;;;;;;5093902;28;20740;-68
2023/06/17 10:55:05;;;;;;;4.95;4.55;;;;;;;;;;5094085;28;20042;-68
2023/06/17 10:57:36;;;;;;;3.92;3.70;;;;;;;;;;5093984;28;20455;-68
2023/06/17 11:00:10;;;;;;;4.13;3.83;;;;;;;;;;5093916;28;20024;-68
2023/06/17 11:02:38;;;;;;;4.57;4.18;;;;;;;;;;5093443;28;20081;-68
2023/06/17 11:05:05;;;;;;;4.85;4.43;;;;;;;;;;5075180;28;20096;-68
2023/06/17 11:07:30;;;;;;;4.60;4.30;;;;;;;;;;5093916;28;20040;-69
2023/06/17 11:09:56;;;;;;;4.80;4.32;;;;;;;;;;5093830;28;20032;-68
2023/06/17 11:12:21;;;;;;;4.32;4.00;;;;;;;;;;5092508;28;20020;-68
2023/06/17 11:14:47;;;;;;;2.33;2.13;;;;;;;;;;5093769;28;20036;-70
2023/06/17 11:17:12;;;;;;;3.25;3.05;;;;;;;;;;5094351;28;20032;-70
2023/06/17 11:19:38;;;;;;;2.33;2.13;;;;;;;;;;5093753;28;20038;-69
2023/06/17 11:22:03;;;;;;;2.67;2.47;;;;;;;;;;5093733;28;20027;-69
2023/06/17 11:24:32;;;;;;;3.25;2.17;;;;;;;;;;5093885;28;20070;-69
2023/06/17 11:26:58;;;;;;;5.68;4.70;;;;;;;;;;5075943;28;20219;-69
2023/06/17 11:29:25;;;;;;;4.93;4.00;;;;;;;;;;5093193;28;20044;-69
2023/06/17 11:31:51;;;;;;;4.90;4.47;;;;;;;;;;5093737;28;20072;-69
2023/06/17 11:34:16;;;;;;;5.47;4.60;;;;;;;;;;5092045;28;20074;-69
2023/06/17 11:36:42;;;;;;;11.45;4.85;;;;;;;;;;5075663;28;20035;-69
2023/06/17 11:39:09;;;;;;;4.68;4.28;;;;;;;;;;5093921;28;20051;-69
2023/06/17 11:41:34;;;;;;;4.47;4.18;;;;;;;;;;5093712;28;20115;-68
2023/06/17 11:44:00;;;;;;;5.28;4.32;;;;;;;;;;5093852;28;20064;-68
2023/06/17 11:46:27;;;;;;;7.18;4.60;;;;;;;;;;5093784;28;20036;-68
2023/06/17 11:48:52;;;;;;;2.90;2.65;;;;;;;;;;5093841;28;20040;-68
2023/06/17 11:51:18;;;;;;;6.75;4.18;;;;;;;;;;5093675;28;20097;-68
2023/06/17 11:53:44;;;;;;;5.03;3.75;;;;;;;;;;5093657;28;20028;-69
2023/06/17 11:56:10;;;;;;;4.00;3.05;;;;;;;;;;5075676;28;20064;-69
2023/06/17 11:58:39;;;;;;;3.85;3.55;;;;;;;;;;5072320;28;20504;-68
2023/06/17 12:01:05;;;;;;;5.20;3.33;;;;;;;;;;5073390;28;20086;-68
2023/06/17 12:03:31;;;;;;;3.85;3.55;;;;;;;;;;5072463;28;20480;-68
2023/06/17 12:05:59;;;;;;;3.15;2.95;;;;;;;;;;5074153;28;20078;-68
2023/06/17 12:08:31;;;;;;;4.13;3.72;;;;;;;;;;5073619;28;20032;-68
2023/06/17 12:10:56;;;;;;;5.05;4.53;;;;;;;;;;5073788;28;20051;-68
2023/06/17 12:13:22;;;;;;;6.32;4.65;;;;;;;;;;5073637;28;20021;-68
2023/06/17 12:15:48;;;;;;;6.65;5.07;;;;;;;;;;5073768;28;20032;-69
2023/06/17 12:18:13;;;;;;;4.18;3.83;;;;;;;;;;5073856;28;20078;-68
2023/06/17 12:20:47;;;;;;;4.72;4.38;;;;;;;;;;5072149;28;20155;-70
2023/06/17 12:23:13;;;;;;;4.45;4.07;;;;;;;;;;5075455;28;20040;-69
2023/06/17 12:25:40;;;;;;;4.15;3.75;;;;;;;;;;5077269;28;20043;-69
2023/06/17 12:28:06;;;;;;;3.80;3.50;;;;;;;;;;5076618;28;20037;-69
2023/06/17 12:30:33;;;;;;;4.03;3.72;;;;;;;;;;5077811;28;20396;-69
2023/06/17 12:32:59;;;;;;;6.13;4.05;;;;;;;;;;5077515;28;20045;-69
2023/06/17 12:35:24;;;;;;;4.60;4.20;;;;;;;;;;5080443;28;20028;-69
2023/06/17 12:37:51;;;;;;;4.13;3.83;;;;;;;;;;5097936;28;20031;-70
2023/06/17 12:40:18;;;;;;;4.40;4.10;;;;;;;;;;5079561;28;20035;-69
2023/06/17 12:42:44;;;;;;;6.35;3.80;;;;;;;;;;5097788;28;20536;-69
2023/06/17 12:45:10;;;;;;;4.30;3.90;;;;;;;;;;5079240;28;20071;-68
2023/06/17 12:47:36;;;;;;;4.65;4.35;;;;;;;;;;5079280;28;20357;-69
2023/06/17 12:50:02;;;;;;;3.80;3.50;;;;;;;;;;5097252;28;20043;-69
2023/06/17 12:52:28;;;;;;;4.93;4.47;;;;;;;;;;5097033;28;20047;-69
2023/06/17 12:54:58;;;;;;;4.10;3.70;;;;;;;;;;5097096;28;20047;-69
2023/06/17 12:57:23;;;;;;;5.20;3.78;;;;;;;;;;5097495;28;20066;-68
2023/06/17 12:59:48;;;;;;;3.08;2.88;;;;;;;;;;5079015;28;20040;-68
2023/06/17 13:02:14;;;;;;;4.10;3.85;;;;;;;;;;5097195;28;20059;-69
2023/06/17 13:04:39;;;;;;;4.03;3.80;;;;;;;;;;5097387;28;20390;-69
2023/06/17 13:07:04;;;;;;;3.75;3.53;;;;;;;;;;5096925;28;20032;-68
2023/06/17 13:09:30;;;;;;;3.75;3.55;;;;;;;;;;5096739;28;20071;-69
2023/06/17 13:11:55;;;;;;;3.95;3.72;;;;;;;;;;5096318;28;20487;-67
2023/06/17 13:14:22;;;;;;;3.78;3.47;;;;;;;;;;5096250;28;20033;-68
2023/06/17 13:16:47;;;;;;;4.32;3.92;;;;;;;;;;5096345;28;20472;-69
2023/06/17 13:19:12;;;;;;;3.95;3.65;;;;;;;;;;5077273;28;20035;-70
2023/06/17 13:21:40;;;;;;;4.40;4.10;;;;;;;;;;5095693;28;20036;-69
2023/06/17 13:24:08;;;;;;;3.80;3.60;;;;;;;;;;5078585;28;20081;-66
2023/06/17 13:26:33;;;;;;;3.88;3.60;;;;;;;;;;5061103;28;20032;-67
2023/06/17 13:29:01;;;;;;;4.40;3.97;;;;;;;;;;5095854;28;20365;-69
2023/06/17 13:31:26;;;;;;;4.32;4.00;;;;;;;;;;5075194;28;20128;-66
2023/06/17 13:33:52;;;;;;;3.90;3.60;;;;;;;;;;5045512;28;20107;-69
2023/06/17 13:36:17;;;;;;;3.45;3.15;;;;;;;;;;5085512;28;20166;-69
2023/06/17 13:38:43;;;;;;;4.28;3.97;;;;;;;;;;5095903;28;20488;-69
2023/06/17 13:41:08;;;;;;;4.07;3.80;;;;;;;;;;5095797;28;20160;-69
2023/06/17 13:43:33;;;;;;;4.10;3.80;;;;;;;;;;5095863;28;20067;-69
2023/06/17 13:45:59;;;;;;;3.70;3.50;;;;;;;;;;5095655;28;20044;-69
2023/06/17 13:48:24;;;;;;;3.55;3.25;;;;;;;;;;5095590;28;20173;-69
2023/06/17 13:50:50;;;;;;;3.75;3.53;;;;;;;;;;5095545;28;20468;-69
2023/06/17 13:53:15;;;;;;;4.22;3.40;;;;;;;;;;5077262;28;20086;-68
2023/06/17 13:55:41;;;;;;;3.13;2.83;;;;;;;;;;5095216;28;20060;-68
2023/06/17 13:58:06;;;;;;;3.33;3.13;;;;;;;;;;5095575;28;20040;-69
2023/06/17 14:00:33;;;;;;;3.88;3.47;;;;;;;;;;5095696;28;20119;-69
2023/06/17 14:02:58;;;;;;;3.75;3.45;;;;;;;;;;5095620;28;20047;-68
2023/06/17 14:05:30;;;;;;;3.42;3.22;;;;;;;;;;5096018;28;20040;-68
2023/06/17 14:07:56;;;;;;;3.55;3.35;;;;;;;;;;5095233;28;20035;-69
2023/06/17 14:10:24;;;;;;;3.90;3.70;;;;;;;;;;5094974;28;20028;-65
2023/06/17 14:12:50;;;;;;;3.88;3.33;;;;;;;;;;5094676;28;20111;-65
2023/06/17 14:15:15;;;;;;;3.80;3.50;;;;;;;;;;5094466;28;20068;-66
2023/06/17 14:17:41;;;;;;;3.20;3.00;;;;;;;;;;5094231;28;20066;-65
2023/06/17 14:20:07;;;;;;;3.55;3.25;;;;;;;;;;5077177;28;20156;-65
2023/06/17 14:22:32;;;;;;;3.30;3.10;;;;;;;;;;5094174;28;20028;-66
2023/06/17 14:24:57;;;;;;;3.30;3.10;;;;;;;;;;5093890;28;20380;-65
2023/06/17 14:27:41;;;;;;;3.25;3.05;;;;;;;;;;5093845;28;20036;-65
2023/06/17 14:30:09;;;;;;;3.17;2.90;;;;;;;;;;5094216;28;20469;-65
2023/06/17 14:32:35;;;;;;;3.42;3.15;;;;;;;;;;5076318;28;20040;-64
2023/06/17 14:35:01;;;;;;;3.28;3.08;;;;;;;;;;5094419;28;20027;-65
2023/06/17 14:37:28;;;;;;;3.47;2.80;;;;;;;;;;5094004;28;20112;-65
2023/06/17 14:39:54;;;;;;;3.22;2.92;;;;;;;;;;5075820;28;20040;-64
2023/06/17 14:42:19;;;;;;;2.90;2.80;;;;;;;;;;5093886;28;20477;-65